Time;durP1;ratioP1;P1;durP2;ratioP2;P2;SDS_P1;SDS_P2;PMS_P1;PMS_P2;Temp;Humidity;BMP_temperature;BMP_pressure;BME280_temperature;BME280_humidity;BME280_pressure;Samples;Min_cycle;Max_cycle;Signal;HPM_P1;HPM_P2
2021/06/21 00:01:25;;;;;;;27.02;8.90;;;;;;;21.54;69.55;100251.31;5049283;28;20040;-75
2021/06/21 00:03:58;;;;;;;25.85;8.45;;;;;;;21.25;70.91;100265.53;5034351;28;20088;-75
2021/06/21 00:06:24;;;;;;;20.50;9.07;;;;;;;21.05;71.62;100253.38;5048459;28;20144;-75
2021/06/21 00:08:49;;;;;;;20.20;8.98;;;;;;;20.83;72.32;100255.59;5050620;28;20558;-74
2021/06/21 00:11:15;;;;;;;25.30;9.10;;;;;;;20.62;73.05;100247.03;5050279;28;20067;-73
2021/06/21 00:13:42;;;;;;;21.98;9.18;;;;;;;20.59;73.85;100266.66;5065480;28;20057;-73
2021/06/21 00:16:09;;;;;;;20.77;9.70;;;;;;;20.47;74.17;100267.38;5035059;28;20490;-74
2021/06/21 00:18:35;;;;;;;16.35;9.57;;;;;;;20.32;74.50;100257.56;5054584;28;20044;-73
2021/06/21 00:21:00;;;;;;;25.13;10.00;;;;;;;20.39;74.77;100264.28;5054124;28;20052;-74
2021/06/21 00:23:26;;;;;;;25.73;9.90;;;;;;;20.25;74.90;100256.19;5054313;28;20513;-75
2021/06/21 00:25:52;;;;;;;32.00;9.63;;;;;;;20.13;75.07;100249.78;5052909;28;20334;-74
2021/06/21 00:28:18;;;;;;;35.83;10.18;;;;;;;20.13;75.37;100254.22;5054109;28;20458;-74
2021/06/21 00:30:44;;;;;;;24.77;11.10;;;;;;;20.11;75.18;100253.47;5053079;28;20102;-73
2021/06/21 00:33:11;;;;;;;28.52;8.85;;;;;;;20.19;74.93;100273.34;5054370;28;20087;-74
2021/06/21 00:35:37;;;;;;;21.40;9.20;;;;;;;20.17;75.25;100269.06;5053109;28;20049;-75
2021/06/21 00:38:06;;;;;;;25.50;9.63;;;;;;;20.14;75.17;100271.88;5052930;28;20559;-74
2021/06/21 00:40:37;;;;;;;20.77;10.05;;;;;;;20.10;75.78;100270.34;5052819;28;20057;-74
2021/06/21 00:43:04;;;;;;;20.25;9.40;;;;;;;20.08;75.96;100274.88;5054064;28;20163;-73
2021/06/21 00:45:30;;;;;;;28.75;9.43;;;;;;;20.10;76.09;100275.66;5052658;28;20044;-74
2021/06/21 00:47:56;;;;;;;22.50;10.98;;;;;;;19.96;75.72;100269.25;5054017;28;20512;-76
2021/06/21 00:50:23;;;;;;;22.83;10.35;;;;;;;20.00;75.97;100280.56;5053149;28;20191;-76
2021/06/21 00:52:52;;;;;;;36.17;10.02;;;;;;;19.88;76.32;100254.69;5053976;28;20041;-74
2021/06/21 00:55:18;;;;;;;22.13;9.73;;;;;;;20.14;75.44;100277.19;5054228;28;20040;-73
2021/06/21 00:57:44;;;;;;;28.40;9.95;;;;;;;20.14;74.97;100264.75;5052979;28;20049;-74
2021/06/21 01:00:15;;;;;;;23.30;9.48;;;;;;;20.06;75.28;100260.78;5052764;28;20568;-75
2021/06/21 01:02:41;;;;;;;25.35;9.70;;;;;;;19.99;75.38;100247.84;5054353;28;20140;-74
2021/06/21 01:05:09;;;;;;;30.70;10.15;;;;;;;20.05;74.79;100270.56;5069860;28;20045;-75
2021/06/21 01:07:36;;;;;;;27.35;9.90;;;;;;;19.90;74.78;100245.69;5053044;28;20048;-73
2021/06/21 01:10:03;;;;;;;34.75;10.27;;;;;;;19.99;74.70;100261.13;5052517;28;20084;-76
2021/06/21 01:12:51;;;;;;;17.27;9.13;;;;;;;20.09;74.65;100269.47;5051485;28;20045;-74
2021/06/21 01:15:23;;;;;;;31.30;9.93;;;;;;;20.04;74.97;100268.84;5067996;28;20045;-73
2021/06/21 01:18:15;;;;;;;24.42;9.05;;;;;;;20.05;75.23;100272.34;5068404;28;20410;-73
2021/06/21 01:21:11;;;;;;;20.10;8.90;;;;;;;20.05;75.19;100275.00;5052857;28;20048;-75
2021/06/21 01:24:01;;;;;;;22.25;10.23;;;;;;;20.07;74.95;100279.31;5053537;28;20055;-74
2021/06/21 01:26:58;;;;;;;20.70;9.80;;;;;;;20.03;74.85;100266.28;5052750;28;20044;-75
2021/06/21 01:29:36;;;;;;;24.02;10.52;;;;;;;19.97;75.16;100270.97;5022076;28;20049;-74
2021/06/21 01:32:17;;;;;;;24.50;9.88;;;;;;;19.93;74.54;100256.16;5053803;28;20053;-74
2021/06/21 01:34:47;;;;;;;25.98;9.88;;;;;;;20.03;74.64;100271.59;5053305;28;20139;-75
2021/06/21 01:37:15;;;;;;;17.38;9.20;;;;;;;19.88;74.59;100252.88;5051793;28;20052;-74
2021/06/21 01:39:42;;;;;;;25.63;9.40;;;;;;;19.92;74.91;100270.38;5052075;28;20110;-74
2021/06/21 01:42:14;;;;;;;19.70;10.27;;;;;;;19.85;75.97;100274.28;5068237;28;20068;-71
2021/06/21 01:44:43;;;;;;;23.10;10.77;;;;;;;19.81;76.15;100278.06;5069128;28;20084;-75
2021/06/21 01:47:09;;;;;;;31.15;10.88;;;;;;;19.85;76.24;100273.44;5053331;28;20283;-73
2021/06/21 01:49:39;;;;;;;16.83;10.35;;;;;;;19.88;75.88;100271.47;5035523;28;20044;-73
2021/06/21 01:52:05;;;;;;;25.00;10.20;;;;;;;19.96;75.74;100279.88;5051804;28;20037;-73
2021/06/21 01:54:32;;;;;;;31.98;10.20;;;;;;;19.93;74.99;100273.88;5051718;28;20045;-74
2021/06/21 01:56:59;;;;;;;21.13;10.73;;;;;;;20.02;75.14;100285.81;5052790;28;20044;-75
2021/06/21 01:59:26;;;;;;;16.83;9.75;;;;;;;20.13;74.24;100283.44;5051769;28;20045;-75
2021/06/21 02:01:56;;;;;;;20.80;10.88;;;;;;;20.21;73.94;100268.78;5051326;28;20051;-76
2021/06/21 02:04:22;;;;;;;36.40;10.77;;;;;;;20.35;73.94;100288.44;5051259;28;20596;-75
2021/06/21 02:06:50;;;;;;;34.25;10.98;;;;;;;20.41;73.82;100280.16;5035169;28;20091;-76
2021/06/21 02:09:18;;;;;;;20.40;9.30;;;;;;;20.56;73.17;100292.56;5027931;28;186001;-74
2021/06/21 02:11:46;;;;;;;21.80;9.68;;;;;;;20.67;72.57;100281.31;5038625;28;20140;-73
2021/06/21 02:14:11;;;;;;;20.50;9.55;;;;;;;20.80;72.50;100295.63;5052284;28;20040;-74
2021/06/21 02:16:37;;;;;;;31.13;11.38;;;;;;;20.86;71.68;100274.88;5036016;28;20032;-73
2021/06/21 02:19:03;;;;;;;28.80;9.93;;;;;;;21.01;72.00;100278.44;5035402;28;20395;-74
2021/06/21 02:21:29;;;;;;;24.52;9.98;;;;;;;21.05;71.42;100253.38;5068842;28;20064;-75
2021/06/21 02:23:55;;;;;;;24.45;10.43;;;;;;;21.86;69.21;100270.66;5068666;28;20410;-76
2021/06/21 02:26:25;;;;;;;36.33;11.18;;;;;;;23.06;64.75;100280.72;5052282;28;20568;-75
2021/06/21 02:28:53;;;;;;;38.65;12.23;;;;;;;23.95;61.35;100277.28;5068750;28;20243;-76
2021/06/21 02:31:20;;;;;;;31.65;10.45;;;;;;;24.77;57.81;100275.78;5051497;28;20041;-76
2021/06/21 02:33:46;;;;;;;33.80;11.30;;;;;;;25.46;55.86;100280.34;5053608;28;20512;-75
2021/06/21 02:36:12;;;;;;;33.70;11.07;;;;;;;26.00;53.28;100265.44;5052824;28;20123;-74
2021/06/21 02:38:38;;;;;;;31.73;10.70;;;;;;;26.70;51.31;100279.38;5068017;28;20087;-76
2021/06/21 02:41:03;;;;;;;27.60;11.10;;;;;;;27.22;49.48;100280.44;5053203;28;20047;-75
2021/06/21 02:43:29;;;;;;;38.20;11.00;;;;;;;27.56;49.09;100272.19;5051463;28;20037;-76
2021/06/21 02:45:55;;;;;;;45.78;12.82;;;;;;;28.00;47.26;100290.69;5034812;28;20048;-74
2021/06/21 02:48:21;;;;;;;35.45;12.48;;;;;;;28.27;46.77;100281.22;5053006;28;20049;-74
2021/06/21 02:50:48;;;;;;;52.30;13.45;;;;;;;28.57;45.42;100270.38;5051196;28;20094;-75
2021/06/21 02:53:45;;;;;;;43.60;14.27;;;;;;;28.91;44.57;100283.47;5053244;28;20049;-75
2021/06/21 02:56:21;;;;;;;43.70;14.75;;;;;;;28.88;44.20;100286.44;5052752;28;20040;-73
2021/06/21 02:58:48;;;;;;;36.88;14.90;;;;;;;29.10;43.30;100278.13;5051995;28;20140;-74
2021/06/21 03:01:15;;;;;;;30.13;16.05;;;;;;;28.78;43.74;100273.78;5051167;28;20055;-74
2021/06/21 03:03:45;;;;;;;38.40;18.13;;;;;;;28.64;44.34;100274.22;5052797;28;20045;-74
2021/06/21 03:06:11;;;;;;;35.53;17.15;;;;;;;28.88;44.09;100284.59;5051066;28;20043;-72
2021/06/21 03:08:38;;;;;;;50.22;22.65;;;;;;;28.97;43.83;100277.53;5050947;28;20051;-74
2021/06/21 03:11:04;;;;;;;50.75;25.13;;;;;;;29.20;43.11;100273.56;5041802;28;20136;-72
2021/06/21 03:13:30;;;;;;;41.63;24.13;;;;;;;29.55;42.33;100281.06;5052304;28;20041;-75
2021/06/21 03:15:57;;;;;;;54.05;27.80;;;;;;;29.65;41.76;100281.03;5052459;28;20043;-74
2021/06/21 03:18:24;;;;;;;40.20;24.80;;;;;;;29.61;42.00;100282.31;5050905;28;20581;-76
2021/06/21 03:20:54;;;;;;;45.15;23.55;;;;;;;30.27;40.46;100284.94;5052592;28;20068;-75
2021/06/21 03:23:29;;;;;;;44.70;24.30;;;;;;;30.69;39.75;100285.31;5052347;28;20040;-75
2021/06/21 03:25:56;;;;;;;55.80;25.77;;;;;;;30.48;40.22;100298.22;5052150;28;20041;-76
2021/06/21 03:28:23;;;;;;;45.90;28.45;;;;;;;29.97;41.12;100286.91;5051635;28;20044;-72
2021/06/21 03:31:08;;;;;;;55.72;28.70;;;;;;;30.08;40.56;100282.34;5051930;28;20122;-74
2021/06/21 03:33:36;;;;;;;46.47;28.40;;;;;;;30.27;40.39;100303.84;5067174;28;20128;-78
2021/06/21 03:36:03;;;;;;;55.67;26.70;;;;;;;30.54;39.55;100284.09;5051379;28;20431;-75
2021/06/21 03:38:29;;;;;;;47.58;24.98;;;;;;;31.00;39.03;100310.09;5051658;28;20040;-74
2021/06/21 03:41:00;;;;;;;51.97;24.80;;;;;;;31.47;38.14;100297.19;5050156;28;20094;-75
2021/06/21 03:43:26;;;;;;;43.15;21.67;;;;;;;31.88;36.91;100301.03;5050817;28;20037;-77
2021/06/21 03:45:55;;;;;;;49.13;22.63;;;;;;;32.26;36.84;100307.03;5051321;28;20056;-74
2021/06/21 03:48:21;;;;;;;38.92;19.73;;;;;;;32.55;35.43;100310.19;5049678;28;20044;-76
2021/06/21 03:50:47;;;;;;;37.20;19.85;;;;;;;32.89;34.86;100312.00;5066441;28;20044;-75
2021/06/21 03:53:14;;;;;;;41.40;20.48;;;;;;;33.36;33.96;100314.09;5051379;28;20466;-76
2021/06/21 03:55:40;;;;;;;35.85;19.30;;;;;;;33.87;33.14;100314.75;5066780;28;20041;-76
2021/06/21 03:58:06;;;;;;;45.72;19.75;;;;;;;34.21;32.83;100309.06;5066995;28;20052;-76
2021/06/21 04:00:34;;;;;;;52.63;18.48;;;;;;;34.80;31.54;100312.19;5050397;28;20053;-75
2021/06/21 04:03:00;;;;;;;40.72;18.40;;;;;;;35.34;30.60;100319.31;5067081;28;20124;-77
2021/06/21 04:05:26;;;;;;;38.88;18.17;;;;;;;35.69;29.82;100310.69;5051551;28;20474;-75
2021/06/21 04:07:53;;;;;;;34.03;17.23;;;;;;;35.66;29.61;100312.72;5050916;28;20132;-74
2021/06/21 04:10:24;;;;;;;38.70;17.13;;;;;;;35.98;28.44;100314.31;5050810;28;20086;-73
2021/06/21 04:12:50;;;;;;;45.88;19.50;;;;;;;36.35;28.33;100315.25;5033205;28;20498;-75
2021/06/21 04:15:19;;;;;;;39.33;19.20;;;;;;;36.64;27.90;100322.56;5050277;28;20498;-75
2021/06/21 04:17:45;;;;;;;37.03;16.33;;;;;;;36.53;28.21;100323.91;5034131;28;20406;-75
2021/06/21 04:20:14;;;;;;;29.77;15.05;;;;;;;36.71;27.44;100318.03;5067787;28;20041;-75
2021/06/21 04:22:40;;;;;;;24.42;13.07;;;;;;;37.14;26.65;100323.53;5034190;28;20044;-75
2021/06/21 04:25:08;;;;;;;25.58;11.45;;;;;;;37.53;25.66;100321.19;5052134;28;20153;-75
2021/06/21 04:27:34;;;;;;;33.35;11.73;;;;;;;37.58;26.02;100317.88;5052077;28;20439;-76
2021/06/21 04:30:00;;;;;;;29.88;10.98;;;;;;;37.46;25.90;100323.03;5051989;28;20041;-74
2021/06/21 04:32:26;;;;;;;20.08;9.70;;;;;;;37.77;25.72;100330.84;5050153;28;20136;-74
2021/06/21 04:34:52;;;;;;;24.65;10.15;;;;;;;37.87;25.66;100311.38;5049458;28;20073;-72
2021/06/21 04:37:17;;;;;;;22.67;8.98;;;;;;;37.83;25.11;100323.75;5050656;28;20047;-74
2021/06/21 04:39:43;;;;;;;26.05;9.73;;;;;;;38.11;25.65;100321.84;5050599;28;20040;-73
2021/06/21 04:42:09;;;;;;;22.77;8.80;;;;;;;37.90;25.14;100310.97;5049729;28;20036;-75
2021/06/21 04:44:35;;;;;;;22.35;8.93;;;;;;;38.04;25.19;100312.78;5067539;28;20498;-76
2021/06/21 04:47:00;;;;;;;16.20;7.82;;;;;;;38.12;25.01;100314.50;5052039;28;20071;-76
2021/06/21 04:49:26;;;;;;;14.27;6.72;;;;;;;38.76;24.06;100319.66;5052061;28;20049;-75
2021/06/21 04:51:52;;;;;;;23.50;7.97;;;;;;;39.26;23.43;100325.66;5050476;28;20418;-79
2021/06/21 04:54:18;;;;;;;21.38;7.43;;;;;;;39.73;22.95;100319.19;5050563;28;20087;-75
2021/06/21 04:56:44;;;;;;;19.15;6.45;;;;;;;39.65;22.50;100311.19;5050882;28;20041;-75
2021/06/21 04:59:10;;;;;;;15.95;6.00;;;;;;;40.03;22.26;100334.09;5049702;28;20071;-76
2021/06/21 05:01:35;;;;;;;17.27;6.05;;;;;;;40.12;22.00;100331.13;5067991;28;20033;-76
2021/06/21 05:04:04;;;;;;;14.43;5.32;;;;;;;40.49;21.51;100326.84;5055118;28;20036;-75
2021/06/21 05:06:36;;;;;;;10.88;5.60;;;;;;;40.43;21.60;100330.44;5054695;28;20135;-76
2021/06/21 05:09:03;;;;;;;23.85;5.47;;;;;;;40.47;22.21;100323.47;5054384;28;20053;-74
2021/06/21 05:11:30;;;;;;;22.60;5.90;;;;;;;40.31;22.66;100319.28;5053944;28;20548;-75
2021/06/21 05:13:56;;;;;;;18.90;5.72;;;;;;;38.95;23.94;100329.81;5055033;28;20048;-75
2021/06/21 05:16:22;;;;;;;16.90;5.57;;;;;;;39.05;23.90;100323.97;5054063;28;20053;-75
2021/06/21 05:18:47;;;;;;;28.23;7.57;;;;;;;38.31;25.35;100316.50;5054963;28;20409;-73
2021/06/21 05:21:13;;;;;;;18.63;6.43;;;;;;;37.89;25.27;100322.94;5037096;28;20136;-76
2021/06/21 05:23:40;;;;;;;18.45;5.93;;;;;;;37.45;25.68;100326.81;5054655;28;20041;-75
2021/06/21 05:26:06;;;;;;;12.40;4.60;;;;;;;36.59;24.69;100319.56;5036373;28;20498;-71
2021/06/21 05:28:32;;;;;;;20.65;5.60;;;;;;;36.16;26.81;100313.09;5037131;28;20123;-77
2021/06/21 05:30:58;;;;;;;18.83;5.25;;;;;;;35.29;27.67;100319.00;5054444;28;20132;-75
2021/06/21 05:33:24;;;;;;;19.23;5.70;;;;;;;34.65;28.95;100312.09;5053089;28;20033;-73
2021/06/21 05:35:49;;;;;;;15.98;4.72;;;;;;;34.69;28.47;100308.00;5036796;28;20041;-74
2021/06/21 05:38:15;;;;;;;13.95;5.05;;;;;;;34.88;29.04;100313.00;5054290;28;20116;-73
2021/06/21 05:40:41;;;;;;;23.92;4.78;;;;;;;34.84;28.06;100302.66;5054588;28;20123;-75
2021/06/21 05:43:07;;;;;;;9.10;4.35;;;;;;;35.22;28.02;100314.47;5070372;28;20090;-75
2021/06/21 05:45:32;;;;;;;24.30;4.45;;;;;;;34.54;28.20;100307.06;5053317;28;20463;-75
2021/06/21 05:47:58;;;;;;;11.93;3.78;;;;;;;34.58;28.05;100316.56;5069401;28;20127;-75
2021/06/21 05:50:24;;;;;;;10.80;3.70;;;;;;;35.30;27.01;100319.84;5054991;28;20052;-75
2021/06/21 05:52:50;;;;;;;11.13;3.97;;;;;;;36.57;25.07;100327.94;5053683;28;20041;-74
2021/06/21 05:55:18;;;;;;;10.00;3.30;;;;;;;38.30;22.89;100323.03;5054141;28;20044;-76
2021/06/21 05:57:45;;;;;;;8.10;3.50;;;;;;;38.32;23.06;100320.09;5054060;28;20516;-73
2021/06/21 06:00:11;;;;;;;10.77;3.75;;;;;;;38.86;21.68;100322.84;5036810;28;20049;-74
2021/06/21 06:02:37;;;;;;;11.93;2.70;;;;;;;39.14;20.39;100319.97;5053155;28;20068;-75
2021/06/21 06:05:04;;;;;;;11.73;2.13;;;;;;;39.14;20.20;100319.13;5054746;28;20063;-73
2021/06/21 06:07:30;;;;;;;4.43;2.00;;;;;;;38.61;20.19;100314.34;5070028;28;20067;-74
2021/06/21 06:09:57;;;;;;;7.97;2.58;;;;;;;38.21;21.22;100310.56;5069063;28;20418;-73
2021/06/21 06:12:24;;;;;;;10.43;2.85;;;;;;;38.97;20.92;100313.19;5052838;28;20048;-74
2021/06/21 06:14:50;;;;;;;8.20;2.83;;;;;;;38.63;21.36;100314.97;5035586;28;20048;-75
2021/06/21 06:17:16;;;;;;;9.60;2.70;;;;;;;38.21;21.91;100310.56;5054331;28;20072;-76
2021/06/21 06:19:42;;;;;;;13.23;2.70;;;;;;;38.32;21.49;100293.59;5054022;28;20080;-74
2021/06/21 06:22:08;;;;;;;12.43;3.00;;;;;;;38.31;22.22;100310.19;5069334;28;20041;-75
2021/06/21 06:24:34;;;;;;;11.25;3.03;;;;;;;37.88;22.54;100312.22;5053916;28;20481;-75
2021/06/21 06:27:00;;;;;;;14.90;3.30;;;;;;;38.13;22.73;100307.97;5052664;28;20037;-75
2021/06/21 06:29:30;;;;;;;11.57;3.67;;;;;;;37.89;23.86;100313.91;5035749;28;20041;-74
2021/06/21 06:31:56;;;;;;;15.30;4.15;;;;;;;37.16;24.58;100318.72;5053977;28;20041;-73
2021/06/21 06:34:22;;;;;;;12.82;4.07;;;;;;;37.79;23.73;100319.72;5052586;28;20037;-74
2021/06/21 06:36:49;;;;;;;15.38;4.00;;;;;;;38.34;23.40;100313.38;5069073;28;20044;-75
2021/06/21 06:39:14;;;;;;;16.73;4.10;;;;;;;39.04;22.48;100311.31;5035416;28;20033;-75
2021/06/21 06:41:40;;;;;;;17.63;4.40;;;;;;;39.83;22.16;100308.63;5053721;28;20036;-74
2021/06/21 06:44:06;;;;;;;14.05;4.13;;;;;;;39.05;22.42;100313.03;5052376;28;20040;-75
2021/06/21 06:46:32;;;;;;;16.42;4.30;;;;;;;39.27;22.61;100303.56;5052850;28;20048;-74
2021/06/21 06:48:58;;;;;;;10.35;2.70;;;;;;;38.36;22.78;100302.22;5053988;28;20051;-73
2021/06/21 06:51:24;;;;;;;15.95;2.83;;;;;;;37.67;23.50;100303.03;5053716;28;20048;-74
2021/06/21 06:53:54;;;;;;;16.00;3.08;;;;;;;38.07;23.97;100286.94;5053701;28;20051;-74
2021/06/21 06:59:04;;;;;;;9.68;2.78;;;;;;;37.91;23.95;100296.31;5053074;28;20105;-74
2021/06/21 07:01:31;;;;;;;7.93;2.33;;;;;;;37.77;23.29;100292.63;5053232;28;20044;-74
2021/06/21 07:03:57;;;;;;;3.78;2.10;;;;;;;36.98;23.83;100302.81;5053200;28;20091;-74
2021/06/21 07:06:22;;;;;;;9.45;2.88;;;;;;;37.57;24.04;100291.63;5053235;28;20045;-74
2021/06/21 07:08:48;;;;;;;10.18;2.53;;;;;;;38.62;23.18;100306.97;5052341;28;20397;-74
2021/06/21 07:11:15;;;;;;;7.05;2.40;;;;;;;37.47;23.78;100291.97;5053361;28;20045;-74
2021/06/21 07:13:41;;;;;;;4.88;2.05;;;;;;;36.68;24.80;100303.94;5033537;28;20037;-73
2021/06/21 07:16:07;;;;;;;8.48;2.35;;;;;;;36.88;24.38;100286.75;5050233;28;20044;-78
2021/06/21 07:18:34;;;;;;;9.55;2.75;;;;;;;37.62;23.42;100299.22;5032487;28;20057;-75
2021/06/21 07:21:00;;;;;;;9.75;2.20;;;;;;;38.51;22.64;100297.44;5015534;28;20056;-74
2021/06/21 07:23:26;;;;;;;3.95;1.60;;;;;;;38.91;21.34;100294.88;5030477;28;20052;-75
2021/06/21 07:25:52;;;;;;;3.67;1.70;;;;;;;39.14;21.30;100300.81;5048638;28;20410;-73
2021/06/21 07:28:18;;;;;;;8.18;2.00;;;;;;;39.90;20.93;100298.47;5063770;28;20045;-77
2021/06/21 07:30:44;;;;;;;3.40;1.85;;;;;;;38.94;20.37;100305.41;5046512;28;20533;-77
2021/06/21 07:33:11;;;;;;;2.72;1.80;;;;;;;37.78;22.53;100298.94;5045098;28;20048;-77
2021/06/21 07:35:41;;;;;;;8.95;2.00;;;;;;;37.33;23.70;100298.34;5064265;28;20453;-71
2021/06/21 07:38:08;;;;;;;4.32;2.05;;;;;;;38.19;22.82;100285.34;5047635;28;20084;-74
2021/06/21 07:40:36;;;;;;;9.77;1.88;;;;;;;37.35;23.05;100288.09;5042020;28;20138;-70
2021/06/21 07:43:02;;;;;;;7.65;1.90;;;;;;;36.77;24.11;100283.72;5043196;28;20471;-73
2021/06/21 07:45:27;;;;;;;5.47;1.70;;;;;;;36.35;24.15;100296.19;5060680;28;20127;-73
2021/06/21 07:47:54;;;;;;;7.88;1.83;;;;;;;36.76;23.82;100284.72;5045696;28;20067;-74
2021/06/21 07:50:20;;;;;;;4.15;1.75;;;;;;;36.96;24.08;100298.59;5043708;28;20336;-73
2021/06/21 07:52:46;;;;;;;6.85;1.85;;;;;;;36.45;24.25;100285.84;5044412;28;20593;-73
2021/06/21 07:55:12;;;;;;;8.02;1.92;;;;;;;37.68;22.39;100292.94;5044108;28;20136;-75
2021/06/21 07:57:38;;;;;;;5.90;1.88;;;;;;;38.61;21.57;100300.66;5044912;28;20441;-74
2021/06/21 08:00:05;;;;;;;6.97;2.05;;;;;;;39.57;21.16;100304.03;5059859;28;20053;-73
2021/06/21 08:02:39;;;;;;;3.13;1.70;;;;;;;38.87;21.18;100304.53;5043754;28;20045;-75
2021/06/21 08:05:04;;;;;;;4.90;1.58;;;;;;;38.07;22.12;100293.25;5045059;28;20098;-76
2021/06/21 08:07:30;;;;;;;7.90;2.17;;;;;;;38.42;21.39;100299.53;5044594;28;20041;-69
2021/06/21 08:09:56;;;;;;;6.18;1.85;;;;;;;39.01;21.53;100300.78;5043316;28;20568;-76
2021/06/21 08:12:21;;;;;;;7.75;2.08;;;;;;;38.20;21.90;100303.44;5042833;28;20061;-75
2021/06/21 08:14:47;;;;;;;6.32;2.17;;;;;;;38.89;21.12;100308.75;5042371;28;20041;-76
2021/06/21 08:17:13;;;;;;;6.75;2.03;;;;;;;39.85;20.73;100301.03;5058263;28;20853;-77
2021/06/21 08:19:39;;;;;;;11.70;9.65;;;;;;;39.12;20.66;100297.44;5040490;28;20052;-75
2021/06/21 08:22:04;;;;;;;8.63;2.00;;;;;;;39.95;20.86;100301.44;5044898;28;20094;-76
2021/06/21 08:24:30;;;;;;;5.10;1.92;;;;;;;39.72;19.91;100298.31;5042910;28;20068;-76
2021/06/21 08:27:00;;;;;;;11.48;2.15;;;;;;;39.13;20.57;100284.59;5061329;28;20135;-76
2021/06/21 08:29:26;;;;;;;7.07;1.70;;;;;;;38.73;21.34;100292.72;5046883;28;20044;-71
2021/06/21 08:31:52;;;;;;;3.22;1.92;;;;;;;37.51;22.07;100289.69;5048454;28;20077;-71
2021/06/21 08:34:17;;;;;;;8.52;2.30;;;;;;;36.67;23.11;100289.44;5047312;28;20477;-71
2021/06/21 08:36:43;;;;;;;9.32;2.28;;;;;;;36.99;23.65;100292.75;5065637;28;20098;-68
2021/06/21 08:39:09;;;;;;;12.35;2.95;;;;;;;37.11;23.04;100283.00;5053281;28;20064;-69
2021/06/21 08:41:37;;;;;;;5.88;2.30;;;;;;;37.24;23.43;100287.78;5018914;28;20064;-70
2021/06/21 08:44:03;;;;;;;10.25;2.30;;;;;;;38.80;21.98;100287.28;5051953;28;20052;-73
2021/06/21 08:46:29;;;;;;;8.15;2.22;;;;;;;37.94;22.46;100290.44;5051543;28;20127;-71
2021/06/21 08:48:55;;;;;;;6.00;2.60;;;;;;;38.42;21.63;100290.47;5052569;28;20049;-71
2021/06/21 08:51:22;;;;;;;8.23;2.13;;;;;;;37.34;23.13;100280.09;5067559;28;20041;-71
2021/06/21 08:53:47;;;;;;;5.78;1.92;;;;;;;37.97;22.97;100281.84;5052956;28;20052;-71
2021/06/21 08:56:13;;;;;;;5.47;1.95;;;;;;;37.06;23.06;100282.72;5052581;28;20037;-73
2021/06/21 08:58:40;;;;;;;11.65;2.20;;;;;;;35.90;23.87;100264.53;5052856;28;20073;-71
2021/06/21 09:01:06;;;;;;;8.70;2.05;;;;;;;35.48;24.61;100282.28;5068399;28;20325;-72
2021/06/21 09:03:43;;;;;;;10.93;2.08;;;;;;;35.17;25.65;100274.22;5052720;28;20041;-70
2021/06/21 09:06:19;;;;;;;10.02;2.25;;;;;;;35.00;26.27;100281.66;5051699;28;20512;-71
2021/06/21 09:08:58;;;;;;;5.25;1.75;;;;;;;34.48;27.67;100267.03;5051963;28;20118;-70
2021/06/21 09:11:49;;;;;;;7.20;1.83;;;;;;;34.73;26.89;100271.28;5068624;28;20056;-71
2021/06/21 09:14:24;;;;;;;4.57;1.60;;;;;;;35.34;26.06;100283.97;5052764;28;20500;-72
2021/06/21 09:16:55;;;;;;;4.63;1.63;;;;;;;34.30;27.87;100275.41;5034669;28;20151;-72
2021/06/21 09:19:21;;;;;;;;;;;;;;;33.35;28.60;100274.41;5035127;28;20382;-73
2021/06/21 09:21:47;;;;;;;4.95;1.60;;;;;;;32.76;29.77;100268.25;5052331;28;19921;-70
2021/06/21 09:24:19;;;;;;;2.10;1.50;;;;;;;32.76;30.72;100265.53;5052217;28;20048;-72
2021/06/21 09:26:48;;;;;;;4.93;1.88;;;;;;;32.15;31.01;100259.41;5035271;28;20450;-70
2021/06/21 09:29:14;;;;;;;4.68;1.75;;;;;;;31.70;31.40;100262.38;5053648;28;20149;-70
2021/06/21 09:31:54;;;;;;;8.73;1.60;;;;;;;31.71;31.51;100247.84;5053723;28;20564;-70
2021/06/21 09:34:22;;;;;;;10.23;1.90;;;;;;;31.34;31.81;100271.56;5052249;28;20107;-71
2021/06/21 09:36:49;;;;;;;4.05;1.30;;;;;;;30.88;32.40;100251.88;5035799;28;20118;-71
2021/06/21 09:39:16;;;;;;;2.17;1.50;;;;;;;30.90;31.91;100276.91;5053717;28;20099;-70
2021/06/21 09:41:42;;;;;;;4.13;1.40;;;;;;;30.87;32.22;100258.28;5051837;28;20048;-72
2021/06/21 09:44:07;;;;;;;12.55;1.50;;;;;;;30.69;32.38;100268.25;5053952;28;20513;-71
2021/06/21 09:46:33;;;;;;;6.05;1.90;;;;;;;30.73;32.29;100272.34;5053093;28;20060;-70
2021/06/21 09:48:59;;;;;;;4.43;1.80;;;;;;;30.95;33.04;100269.16;5068816;28;20037;-69
2021/06/21 09:51:33;;;;;;;8.80;1.92;;;;;;;30.71;34.17;100272.50;5053526;28;20048;-72
2021/06/21 09:54:12;;;;;;;7.43;1.88;;;;;;;30.83;34.10;100275.81;5019094;28;20045;-68
2021/06/21 09:56:50;;;;;;;8.75;1.70;;;;;;;30.83;34.42;100268.56;5035466;28;20056;-70
2021/06/21 09:59:26;;;;;;;11.38;1.75;;;;;;;31.21;34.21;100253.91;5018833;28;20045;-70
2021/06/21 10:02:10;;;;;;;2.85;1.63;;;;;;;31.14;34.98;100258.19;5019034;28;20378;-72
2021/06/21 10:04:38;;;;;;;8.18;1.85;;;;;;;30.92;34.46;100259.53;5068623;28;20052;-69
2021/06/21 10:07:05;;;;;;;3.33;1.70;;;;;;;31.12;34.31;100260.19;5035442;28;20052;-71
2021/06/21 10:09:31;;;;;;;4.75;1.70;;;;;;;31.16;34.42;100249.94;5053260;28;20066;-70
2021/06/21 10:11:56;;;;;;;9.75;1.85;;;;;;;31.17;33.01;100257.91;5017828;28;20486;-72
2021/06/21 10:14:26;;;;;;;7.90;1.88;;;;;;;31.18;34.07;100248.78;5051897;28;20060;-71
2021/06/21 10:16:52;;;;;;;2.83;1.38;;;;;;;31.12;32.84;100254.78;5068303;28;20049;-70
2021/06/21 10:19:19;;;;;;;4.68;1.30;;;;;;;31.08;31.92;100242.59;5053616;28;20045;-70
2021/06/21 10:21:52;;;;;;;8.52;1.35;;;;;;;31.41;31.35;100253.72;5034809;28;20045;-70
2021/06/21 10:24:18;;;;;;;5.53;1.50;;;;;;;31.51;30.85;100240.94;5051909;28;20118;-70
2021/06/21 10:26:49;;;;;;;8.82;1.55;;;;;;;31.23;30.96;100253.75;5035234;28;20052;-69
2021/06/21 10:29:15;;;;;;;11.67;1.70;;;;;;;31.03;31.57;100231.41;5051637;28;20041;-71
2021/06/21 10:31:42;;;;;;;14.95;1.40;;;;;;;31.03;32.13;100244.91;5052701;28;20791;-75
2021/06/21 10:34:08;;;;;;;7.70;1.67;;;;;;;30.77;30.99;100236.75;5053078;28;20041;-71
2021/06/21 10:36:44;;;;;;;5.70;1.50;;;;;;;31.00;31.01;100229.03;5051439;28;20068;-70
2021/06/21 10:39:16;;;;;;;8.00;2.88;;;;;;;31.14;31.27;100241.97;5035033;28;20040;-70
2021/06/21 10:42:08;;;;;;;4.15;1.50;;;;;;;30.82;30.81;100233.59;5050940;28;20051;-71
2021/06/21 10:44:35;;;;;;;2.63;1.70;;;;;;;30.76;29.77;100236.91;5044224;28;20041;-71
2021/06/21 10:47:38;;;;;;;2.25;1.55;;;;;;;30.71;29.96;100240.09;5051546;28;20049;-71
2021/06/21 10:50:15;;;;;;;8.73;1.40;;;;;;;30.80;30.30;100227.50;5052478;28;20052;-71
2021/06/21 10:52:41;;;;;;;6.60;1.48;;;;;;;30.85;29.63;100222.47;5052851;28;20285;-70
2021/06/21 10:55:26;;;;;;;4.72;1.48;;;;;;;30.82;28.42;100226.34;5053017;28;20175;-72
2021/06/21 10:58:04;;;;;;;4.85;1.48;;;;;;;30.80;29.44;100217.53;5018453;28;20045;-72
2021/06/21 11:00:43;;;;;;;3.33;1.40;;;;;;;30.73;30.27;100221.03;5050834;28;20417;-70
2021/06/21 11:03:24;;;;;;;3.78;1.35;;;;;;;30.81;30.87;100218.38;5050943;28;20490;-73
2021/06/21 11:05:52;;;;;;;8.23;1.60;;;;;;;30.76;30.68;100207.19;5052234;28;20147;-73
2021/06/21 11:08:26;;;;;;;9.20;1.42;;;;;;;30.77;31.16;100217.84;5033837;28;20077;-70
2021/06/21 11:10:56;;;;;;;3.95;1.60;;;;;;;30.72;31.49;100205.81;5033133;28;20080;-72
2021/06/21 11:13:28;;;;;;;4.47;1.77;;;;;;;30.81;31.49;100223.78;5050432;28;20052;-69
2021/06/21 11:16:12;;;;;;;2.10;1.65;;;;;;;30.64;31.58;100212.84;5067785;28;20051;-71
2021/06/21 11:18:38;;;;;;;2.30;1.33;;;;;;;30.64;31.78;100209.28;5052207;28;20049;-72
2021/06/21 11:21:15;;;;;;;3.42;1.50;;;;;;;30.56;32.42;100206.47;5034034;28;20048;-70
2021/06/21 11:23:44;;;;;;;4.43;1.70;;;;;;;30.38;32.93;100205.59;5034050;28;20047;-70
2021/06/21 11:26:10;;;;;;;3.63;1.50;;;;;;;30.38;32.65;100208.28;5052202;28;20040;-73
2021/06/21 11:28:47;;;;;;;2.97;1.52;;;;;;;30.32;32.70;100217.84;5067429;28;20047;-69